createdAt,value
2022-12-22T00:02:07.002Z,100086.19
2022-12-22T00:04:52.424Z,100073.84
2022-12-22T00:07:37.696Z,100076.50
2022-12-22T00:10:23.400Z,100078.25
2022-12-22T00:13:08.503Z,100077.38
2022-12-22T00:15:54.287Z,100080.91
2022-12-22T00:18:40.109Z,100060.63
2022-12-22T00:21:27.368Z,100056.25
2022-12-22T00:24:12.486Z,100060.59
2022-12-22T00:26:57.724Z,100059.72
2022-12-22T00:29:54.834Z,100058.84
2022-12-22T00:32:41.750Z,100060.59
2022-12-22T00:35:34.290Z,100045.59
2022-12-22T00:38:19.785Z,100045.59
2022-12-22T00:41:04.727Z,100042.03
2022-12-22T00:43:49.807Z,100035.00
2022-12-22T00:46:36.921Z,100030.59
2022-12-22T00:49:22.145Z,100031.44
2022-12-22T00:52:07.387Z,100030.53
2022-12-22T00:54:52.816Z,100019.09
2022-12-22T00:57:41.010Z,100019.06
2022-12-22T01:00:37.500Z,100015.53
2022-12-22T01:03:23.179Z,100011.13
2022-12-22T01:06:08.980Z,100011.97
2022-12-22T01:08:54.818Z,100008.44
2022-12-22T01:11:40.216Z,100011.09
2022-12-22T01:14:31.626Z,99995.22
2022-12-22T01:17:16.957Z,99992.56
2022-12-22T01:20:02.176Z,99996.94
2022-12-22T01:22:48.454Z,99993.41
2022-12-22T01:25:37.237Z,99994.28
2022-12-22T01:28:23.526Z,99993.41
2022-12-22T01:31:09.316Z,99993.41
2022-12-22T01:33:54.643Z,99982.84
2022-12-22T01:36:39.937Z,99973.13
2022-12-22T01:39:25.149Z,99976.66
2022-12-22T01:42:10.354Z,99974.00
2022-12-22T01:44:55.513Z,99974.88
2022-12-22T01:47:46.850Z,99966.91
2022-12-22T01:50:43.587Z,99962.50
2022-12-22T01:53:36.425Z,99953.69
2022-12-22T01:56:22.606Z,99949.25
2022-12-22T01:59:16.806Z,99950.13
2022-12-22T02:02:02.830Z,99956.28
2022-12-22T02:05:06.086Z,99954.50
2022-12-22T02:08:17.077Z,99956.25
2022-12-22T02:11:24.963Z,99958.91
2022-12-22T02:14:29.692Z,99950.09
2022-12-22T02:17:26.083Z,99942.19
2022-12-22T02:20:46.200Z,99947.47
2022-12-22T02:24:05.747Z,99949.25
2022-12-22T02:27:01.280Z,99941.31
2022-12-22T02:29:52.470Z,99928.97
2022-12-22T02:32:37.671Z,99930.72
2022-12-22T02:35:32.247Z,99924.50
2022-12-22T02:39:03.808Z,99920.09
2022-12-22T02:42:08.823Z,99915.72
2022-12-22T02:45:32.045Z,99917.50
2022-12-22T02:48:35.629Z,99900.72
2022-12-22T02:51:48.923Z,99913.06
2022-12-22T02:54:36.119Z,99909.50
2022-12-22T02:57:27.826Z,99905.94
2022-12-22T03:00:13.007Z,99902.47
2022-12-22T03:02:58.391Z,99897.16
2022-12-22T03:05:43.768Z,99887.44
2022-12-22T03:08:28.965Z,99893.59
2022-12-22T03:11:14.377Z,99884.78
2022-12-22T03:13:59.556Z,99884.78
2022-12-22T03:16:44.615Z,99884.72
2022-12-22T03:19:29.819Z,99882.97
2022-12-22T03:22:14.983Z,99884.69
2022-12-22T03:25:00.197Z,99882.91
2022-12-22T03:27:27.073Z,99877.63
2022-12-22T03:29:53.842Z,99862.63
2022-12-22T03:32:20.690Z,99870.56
2022-12-22T03:34:47.484Z,99869.69
2022-12-22T03:37:14.235Z,99863.47
2022-12-22T03:39:41.061Z,99855.53
2022-12-22T03:42:30.205Z,99852.00
2022-12-22T03:45:15.440Z,99852.88
2022-12-22T03:47:42.179Z,99848.50
2022-12-22T03:50:09.243Z,99851.16
2022-12-22T03:52:36.004Z,99850.28
2022-12-22T03:55:02.761Z,99852.00
2022-12-22T03:57:29.536Z,99835.28
2022-12-22T03:59:56.298Z,99826.41
2022-12-22T04:02:23.159Z,99834.34
2022-12-22T04:04:49.950Z,99829.94
2022-12-22T04:07:16.707Z,99835.22
2022-12-22T04:10:03.519Z,99830.81
2022-12-22T04:12:48.654Z,99818.47
2022-12-22T04:15:15.601Z,99823.75
2022-12-22T04:17:42.413Z,99814.06
2022-12-22T04:20:09.919Z,99808.75
2022-12-22T04:22:36.692Z,99815.81
2022-12-22T04:25:04.106Z,99810.53
2022-12-22T04:27:30.925Z,99807.84
2022-12-22T04:29:57.686Z,99806.97
2022-12-22T04:32:24.431Z,99803.44
2022-12-22T04:34:51.222Z,99796.38
2022-12-22T04:37:18.152Z,99781.38
2022-12-22T04:39:45.002Z,99790.19
2022-12-22T04:42:11.826Z,99784.91
2022-12-22T04:44:38.747Z,99779.59
2022-12-22T04:47:05.581Z,99776.94
2022-12-22T04:49:32.401Z,99793.66
2022-12-22T04:51:59.158Z,99780.44
2022-12-22T04:54:26.011Z,99778.66
2022-12-22T04:56:53.238Z,99772.44
2022-12-22T04:59:20.042Z,99782.13
2022-12-22T05:01:46.845Z,99775.94
2022-12-22T05:04:17.371Z,99775.94
2022-12-22T05:06:46.972Z,99761.78
2022-12-22T05:09:13.838Z,99758.25
2022-12-22T05:11:40.583Z,99746.81
2022-12-22T05:14:07.653Z,99752.09
2022-12-22T05:16:34.596Z,99752.09
2022-12-22T05:19:01.425Z,99745.88
2022-12-22T05:21:28.317Z,99745.84
2022-12-22T05:23:55.080Z,99722.03
2022-12-22T05:26:21.822Z,99720.25
2022-12-22T05:28:48.581Z,99723.81
2022-12-22T05:31:19.730Z,99720.25
2022-12-22T05:33:46.704Z,99712.31
2022-12-22T05:36:14.173Z,99718.50
2022-12-22T05:38:41.194Z,99713.16
2022-12-22T05:41:08.206Z,99716.69
2022-12-22T05:43:36.012Z,99712.28
2022-12-22T05:46:06.601Z,99707.84
2022-12-22T05:48:38.565Z,99702.56
2022-12-22T05:51:10.544Z,99699.91
2022-12-22T05:53:38.425Z,99699.97
2022-12-22T05:56:06.160Z,99692.03
2022-12-22T05:58:33.601Z,99698.22
2022-12-22T06:01:01.127Z,99698.25
2022-12-22T06:03:29.641Z,99685.00
2022-12-22T06:05:57.958Z,99685.00
2022-12-22T06:08:25.569Z,99684.16
2022-12-22T06:10:55.837Z,99685.03
2022-12-22T06:13:23.476Z,99683.25
2022-12-22T06:15:50.300Z,99683.25
2022-12-22T06:18:17.748Z,99676.22
2022-12-22T06:20:46.956Z,99679.72
2022-12-22T06:23:13.767Z,99673.53
2022-12-22T06:25:40.616Z,99669.13
2022-12-22T06:28:07.420Z,99669.13
2022-12-22T06:30:34.241Z,99665.63
2022-12-22T06:33:01.564Z,99669.13
2022-12-22T06:35:28.740Z,99667.41
2022-12-22T06:37:55.574Z,99663.84
2022-12-22T06:40:22.399Z,99667.38
2022-12-22T06:43:08.985Z,99656.81
2022-12-22T06:45:41.168Z,99651.50
2022-12-22T06:48:09.676Z,99649.72
2022-12-22T06:50:36.513Z,99654.16
2022-12-22T06:53:04.319Z,99651.50
2022-12-22T06:55:31.345Z,99646.16
2022-12-22T06:57:58.133Z,99656.75
2022-12-22T07:00:25.021Z,99643.50
2022-12-22T07:02:51.987Z,99649.63
2022-12-22T07:05:18.996Z,99651.38
2022-12-22T07:07:45.775Z,99651.38
2022-12-22T07:10:12.933Z,99643.44
2022-12-22T07:12:39.695Z,99649.59
2022-12-22T07:15:07.152Z,99655.78
2022-12-22T07:17:33.944Z,99645.13
2022-12-22T07:20:00.859Z,99654.84
2022-12-22T07:22:30.689Z,99651.28
2022-12-22T07:24:58.521Z,99650.41
2022-12-22T07:27:25.333Z,99651.28
2022-12-22T07:29:52.104Z,99647.75
2022-12-22T07:32:18.881Z,99650.34
2022-12-22T07:34:45.625Z,99647.69
2022-12-22T07:37:13.791Z,99652.94
2022-12-22T07:39:40.645Z,99655.56
2022-12-22T07:42:27.252Z,99651.06
2022-12-22T07:44:54.047Z,99651.06
2022-12-22T07:47:20.788Z,99653.66
2022-12-22T07:50:05.950Z,99644.81
2022-12-22T07:52:32.742Z,99643.94
2022-12-22T07:54:59.577Z,99647.44
2022-12-22T07:57:26.536Z,99643.84
2022-12-22T07:59:53.738Z,99645.56
2022-12-22T08:02:20.843Z,99633.19
2022-12-22T08:04:47.731Z,99637.59
2022-12-22T08:07:14.848Z,99639.34
2022-12-22T08:09:41.634Z,99641.91
2022-12-22T08:12:08.511Z,99641.91
2022-12-22T08:14:35.404Z,99640.16
2022-12-22T08:17:02.152Z,99648.97
2022-12-22T08:19:29.388Z,99648.97
2022-12-22T08:21:56.121Z,99649.81
2022-12-22T08:24:22.929Z,99643.69
2022-12-22T08:26:54.685Z,99640.97
2022-12-22T08:29:30.180Z,99643.59
2022-12-22T08:31:58.142Z,99648.91
2022-12-22T08:34:25.080Z,99647.16
2022-12-22T08:36:55.750Z,99644.44
2022-12-22T08:39:25.050Z,99643.53
2022-12-22T08:41:52.041Z,99639.09
2022-12-22T08:44:23.807Z,99647.94
2022-12-22T08:46:52.429Z,99645.28
2022-12-22T08:49:19.791Z,99645.28
2022-12-22T08:51:48.412Z,99647.94
2022-12-22T08:54:15.918Z,99641.78
2022-12-22T08:56:43.942Z,99647.97
2022-12-22T08:59:11.529Z,99654.13
2022-12-22T09:01:44.236Z,99658.53
2022-12-22T09:04:19.376Z,99662.88
2022-12-22T09:06:46.363Z,99658.47
2022-12-22T09:09:16.581Z,99664.66
2022-12-22T09:11:43.660Z,99666.44
2022-12-22T09:14:11.581Z,99661.13
2022-12-22T09:16:39.212Z,99668.19
2022-12-22T09:19:06.704Z,99658.47
2022-12-22T09:21:34.777Z,99671.72
2022-12-22T09:24:01.787Z,99670.81
2022-12-22T09:26:29.257Z,99670.81
2022-12-22T09:28:56.357Z,99668.19
2022-12-22T09:31:25.645Z,99670.81
2022-12-22T09:33:53.113Z,99664.63
2022-12-22T09:36:25.484Z,99668.13
2022-12-22T09:38:52.420Z,99667.28
2022-12-22T09:41:23.206Z,99677.81
2022-12-22T09:43:50.096Z,99671.56
2022-12-22T09:46:22.171Z,99672.41
2022-12-22T09:48:49.743Z,99676.78
2022-12-22T09:51:22.755Z,99677.59
2022-12-22T09:53:58.109Z,99682.78
2022-12-22T09:56:27.515Z,99677.47
2022-12-22T09:58:54.312Z,99678.28
2022-12-22T10:01:52.760Z,99685.25
2022-12-22T10:04:52.696Z,99683.47
2022-12-22T10:07:33.249Z,99691.34
2022-12-22T10:10:13.441Z,99690.38
2022-12-22T10:12:40.246Z,99685.00
2022-12-22T10:15:16.894Z,99679.69
2022-12-22T10:18:09.260Z,99685.81
2022-12-22T10:20:38.322Z,99688.44
2022-12-22T10:23:17.291Z,99681.34
2022-12-22T10:28:48.373Z,99690.13
2022-12-22T10:31:21.771Z,99686.59
2022-12-22T10:33:52.445Z,99690.13
2022-12-22T10:36:29.191Z,99682.16
2022-12-22T10:39:00.667Z,99685.69
2022-12-22T10:41:36.283Z,99687.44
2022-12-22T10:44:21.063Z,99696.28
2022-12-22T10:46:53.960Z,99699.81
2022-12-22T10:49:25.520Z,99698.94
2022-12-22T10:52:16.531Z,99704.19
2022-12-22T10:54:45.213Z,99701.53
2022-12-22T10:57:14.809Z,99701.50
2022-12-22T10:59:57.238Z,99704.09
2022-12-22T11:02:24.042Z,99711.16
2022-12-22T11:04:52.381Z,99718.16
2022-12-22T11:07:20.082Z,99708.44
2022-12-22T11:09:47.316Z,99716.28
2022-12-22T11:12:39.979Z,99722.41
2022-12-22T11:15:34.071Z,99728.59
2022-12-22T11:18:32.258Z,99737.41
2022-12-22T11:21:27.672Z,99736.50
2022-12-22T11:24:23.499Z,99739.19
2022-12-22T11:27:20.851Z,99734.84
2022-12-22T11:30:00.762Z,99733.09
2022-12-22T11:32:44.809Z,99734.91
2022-12-22T11:35:51.550Z,99739.34
2022-12-22T11:38:27.136Z,99740.22
2022-12-22T11:41:30.262Z,99741.06
2022-12-22T11:44:28.505Z,99736.63
2022-12-22T11:47:44.477Z,99734.84
2022-12-22T11:51:00.345Z,99746.19
2022-12-22T11:54:22.536Z,99750.53
2022-12-22T11:57:02.414Z,99758.41
2022-12-22T11:59:58.986Z,99766.28
2022-12-22T12:03:04.574Z,99775.97
2022-12-22T12:06:02.023Z,99762.63
2022-12-22T12:08:54.323Z,99771.41
2022-12-22T12:11:46.171Z,99772.25
2022-12-22T12:14:36.497Z,99774.03
2022-12-22T12:17:41.335Z,99771.31
2022-12-22T12:20:43.540Z,99785.41
2022-12-22T12:23:43.551Z,99781.81
2022-12-22T12:26:35.231Z,99791.50
2022-12-22T12:29:20.772Z,99803.84
2022-12-22T12:32:03.117Z,99796.75
2022-12-22T12:34:34.390Z,99802.06
2022-12-22T12:37:15.067Z,99794.97
2022-12-22T12:40:03.428Z,99793.22
2022-12-22T12:42:40.749Z,99796.81
2022-12-22T12:45:42.483Z,99806.56
2022-12-22T12:48:21.670Z,99813.69
2022-12-22T12:50:55.769Z,99814.59
2022-12-22T12:53:28.192Z,99828.72
2022-12-22T12:56:13.359Z,99831.41
2022-12-22T12:58:40.052Z,99844.69
2022-12-22T13:01:19.011Z,99842.03
2022-12-22T13:04:03.274Z,99847.38
2022-12-22T13:06:49.105Z,99859.75
2022-12-22T13:12:54.912Z,99858.16
2022-12-22T13:15:41.844Z,99859.09
2022-12-22T13:18:28.841Z,99866.22
2022-12-22T13:24:24.054Z,99860.06
2022-12-22T13:26:49.098Z,99864.53
2022-12-22T13:29:22.109Z,99868.88
2022-12-22T13:31:56.489Z,99875.94
2022-12-22T13:34:51.372Z,99887.41
2022-12-22T13:37:27.659Z,99889.25
2022-12-22T13:40:16.316Z,99893.69
2022-12-22T13:43:11.662Z,99901.72
2022-12-22T13:45:45.300Z,99907.09
2022-12-22T13:48:30.410Z,99898.25
2022-12-22T13:51:02.101Z,99906.28
2022-12-22T13:56:48.768Z,99908.13
2022-12-22T13:59:43.464Z,99919.69
2022-12-22T14:02:10.217Z,99925.09
2022-12-22T14:04:39.935Z,99929.59
2022-12-22T14:07:21.446Z,99926.16
2022-12-22T14:09:56.623Z,99925.38
2022-12-22T14:12:34.803Z,99930.78
2022-12-22T14:15:03.114Z,99935.31
2022-12-22T14:17:35.806Z,99938.94
2022-12-22T14:20:29.546Z,99924.91
2022-12-22T14:23:18.299Z,99930.34
2022-12-22T14:25:46.940Z,99927.75
2022-12-22T14:28:33.924Z,99940.16
2022-12-22T14:31:02.822Z,99933.16
2022-12-22T14:33:34.739Z,99942.00
2022-12-22T14:36:11.071Z,99940.34
2022-12-22T14:38:47.626Z,99932.41
2022-12-22T14:41:44.088Z,99941.34
2022-12-22T14:44:20.160Z,99944.06
2022-12-22T14:47:11.842Z,99953.81
2022-12-22T14:50:04.604Z,99954.78
2022-12-22T14:52:51.850Z,99958.41
2022-12-22T14:55:35.022Z,99954.94
2022-12-22T14:58:33.757Z,99953.25
2022-12-22T15:01:30.214Z,99956.78
2022-12-22T15:04:07.767Z,99957.75
2022-12-22T15:06:40.866Z,99963.09
2022-12-22T15:09:13.581Z,99958.72
2022-12-22T15:11:54.578Z,99962.28
2022-12-22T15:14:38.312Z,99964.09
2022-12-22T15:17:12.612Z,99971.19
2022-12-22T15:19:39.523Z,99976.53
2022-12-22T15:22:09.415Z,99978.34
2022-12-22T15:24:36.192Z,99983.63
2022-12-22T15:27:03.202Z,99986.31
2022-12-22T15:29:30.024Z,99989.00
2022-12-22T15:31:56.889Z,99999.59
2022-12-22T15:34:28.011Z,100000.50
2022-12-22T15:36:54.831Z,99998.75
2022-12-22T15:39:23.289Z,99993.50
2022-12-22T15:41:50.268Z,100009.34
2022-12-22T15:44:17.360Z,100013.81
2022-12-22T15:46:54.376Z,100019.09
2022-12-22T15:49:25.107Z,100018.25
2022-12-22T15:51:56.113Z,100020.88
2022-12-22T15:54:23.299Z,100015.63
2022-12-22T15:56:52.559Z,100018.31
2022-12-22T15:59:25.544Z,100013.91
2022-12-22T16:01:58.322Z,100014.81
2022-12-22T16:04:28.243Z,100029.84
2022-12-22T16:06:55.292Z,100016.59
2022-12-22T16:09:31.194Z,100021.03
2022-12-22T16:11:58.190Z,100026.34
2022-12-22T16:14:25.099Z,100019.28
2022-12-22T16:16:51.891Z,100021.97
2022-12-22T16:19:19.462Z,100029.00
2022-12-22T16:21:49.536Z,100028.13
2022-12-22T16:24:27.048Z,100032.53
2022-12-22T16:26:56.821Z,100028.16
2022-12-22T16:29:24.894Z,100021.09
2022-12-22T16:31:52.188Z,100021.09
2022-12-22T16:34:19.015Z,100013.19
2022-12-22T16:36:45.774Z,100010.56
2022-12-22T16:39:12.576Z,100014.97
2022-12-22T16:41:40.877Z,100019.38
2022-12-22T16:46:54.024Z,100018.47
2022-12-22T16:49:26.336Z,100021.16
2022-12-22T16:51:54.687Z,100026.41
2022-12-22T16:54:21.496Z,100024.63
2022-12-22T16:56:51.140Z,100031.66
2022-12-22T16:59:18.252Z,100014.06
2022-12-22T17:01:55.326Z,100014.91
2022-12-22T17:04:28.646Z,100011.38
2022-12-22T17:06:59.397Z,100017.56
2022-12-22T17:09:53.934Z,100014.94
2022-12-22T17:12:30.479Z,100016.72
2022-12-22T17:14:58.344Z,100010.59
2022-12-22T17:17:31.923Z,100015.00
2022-12-22T17:20:01.003Z,100017.66
2022-12-22T17:22:31.671Z,100009.75
2022-12-22T17:25:02.445Z,100010.66
2022-12-22T17:27:31.881Z,100011.56
2022-12-22T17:30:03.177Z,100009.81
2022-12-22T17:32:29.950Z,100006.31
2022-12-22T17:34:56.720Z,99996.66
2022-12-22T17:37:24.183Z,100001.94
2022-12-22T17:39:59.069Z,99998.44
2022-12-22T17:42:26.103Z,100012.50
2022-12-22T17:44:52.914Z,100009.91
2022-12-22T17:47:28.669Z,100010.78
2022-12-22T17:49:58.577Z,100005.53
2022-12-22T17:52:26.982Z,99996.72
2022-12-22T17:54:54.185Z,99994.94
2022-12-22T17:57:41.228Z,99998.47
2022-12-22T18:00:24.429Z,99995.81
2022-12-22T18:02:52.253Z,100000.25
2022-12-22T18:05:23.513Z,99987.06
2022-12-22T18:07:51.462Z,99986.19
2022-12-22T18:10:31.922Z,99989.69
2022-12-22T18:13:00.780Z,99990.56
2022-12-22T18:15:31.942Z,99984.41
2022-12-22T18:18:00.155Z,99985.28
2022-12-22T18:20:27.848Z,99988.78
2022-12-22T18:23:02.136Z,99981.75
2022-12-22T18:25:32.139Z,99972.91
2022-12-22T18:27:59.159Z,99973.81
2022-12-22T18:30:29.745Z,99976.41
2022-12-22T18:32:57.142Z,99975.50
2022-12-22T18:35:27.533Z,99982.56
2022-12-22T18:37:55.650Z,99964.94
2022-12-22T18:40:31.266Z,99971.94
2022-12-22T18:42:59.427Z,99964.03
2022-12-22T18:45:30.147Z,99964.84
2022-12-22T18:47:57.718Z,99966.59
2022-12-22T18:50:28.596Z,99963.97
2022-12-22T18:52:58.620Z,99958.66
2022-12-22T18:55:28.766Z,99955.97
2022-12-22T18:57:58.139Z,99949.81
2022-12-22T19:00:34.332Z,99952.44
2022-12-22T19:03:03.224Z,99938.31
2022-12-22T19:05:33.319Z,99933.91
2022-12-22T19:08:00.349Z,99940.06
2022-12-22T19:10:40.908Z,99928.59
2022-12-22T19:13:17.241Z,99943.56
2022-12-22T19:15:44.266Z,99939.19
2022-12-22T19:18:22.664Z,99937.38
2022-12-22T19:20:53.838Z,99937.38
2022-12-22T19:23:22.825Z,99934.69
2022-12-22T19:25:54.496Z,99933.81
2022-12-22T19:28:42.774Z,99937.34
2022-12-22T19:31:16.455Z,99924.13
2022-12-22T19:33:43.998Z,99927.66
2022-12-22T19:36:27.135Z,99917.91
2022-12-22T19:39:02.653Z,99922.31
2022-12-22T19:41:44.371Z,99910.00
2022-12-22T19:44:19.591Z,99917.88
2022-12-22T19:46:47.729Z,99917.00
2022-12-22T19:49:24.600Z,99913.47
2022-12-22T19:51:51.527Z,99916.13
2022-12-22T19:54:19.477Z,99906.38
2022-12-22T19:56:53.726Z,99908.16
2022-12-22T19:59:38.535Z,99910.78
2022-12-22T20:02:21.885Z,99900.22
2022-12-22T20:04:49.993Z,99908.16
2022-12-22T20:07:19.383Z,99894.94
2022-12-22T20:09:46.356Z,99893.16
2022-12-22T20:12:31.506Z,99886.13
2022-12-22T20:14:58.859Z,99896.69
2022-12-22T20:17:25.909Z,99902.81
2022-12-22T20:19:52.723Z,99894.91
2022-12-22T20:22:21.238Z,99894.91
2022-12-22T20:24:49.880Z,99891.38
2022-12-22T20:27:21.992Z,99875.50
2022-12-22T20:29:48.750Z,99870.22
2022-12-22T20:32:17.778Z,99873.75
2022-12-22T20:34:46.483Z,99867.53
2022-12-22T20:37:16.439Z,99865.81
2022-12-22T20:39:43.919Z,99862.25
2022-12-22T20:42:20.047Z,99858.72
2022-12-22T20:45:02.121Z,99856.94
2022-12-22T20:47:30.498Z,99856.94
2022-12-22T20:49:57.273Z,99851.66
2022-12-22T20:52:24.047Z,99857.84
2022-12-22T20:54:51.029Z,99854.31
2022-12-22T20:57:18.772Z,99854.31
2022-12-22T20:59:53.977Z,99846.38
2022-12-22T21:02:28.165Z,99843.72
2022-12-22T21:04:55.567Z,99830.50
2022-12-22T21:07:22.342Z,99835.81
2022-12-22T21:09:49.175Z,99834.91
2022-12-22T21:12:15.985Z,99824.38
2022-12-22T21:14:42.763Z,99832.28
2022-12-22T21:17:17.194Z,99815.53
2022-12-22T21:19:44.307Z,99823.50
2022-12-22T21:22:11.386Z,99819.97
2022-12-22T21:24:38.447Z,99819.13
2022-12-22T21:27:05.425Z,99808.56
2022-12-22T21:29:32.469Z,99814.72
2022-12-22T21:31:59.289Z,99807.69
2022-12-22T21:34:26.065Z,99809.44
2022-12-22T21:36:59.854Z,99798.88
2022-12-22T21:39:39.077Z,99799.75
2022-12-22T21:42:06.459Z,99797.13
2022-12-22T21:44:35.082Z,99798.88
2022-12-22T21:47:02.566Z,99798.88
2022-12-22T21:49:32.266Z,99795.34
2022-12-22T21:51:59.157Z,99790.94
2022-12-22T21:54:26.962Z,99796.22
2022-12-22T21:56:54.482Z,99790.94
2022-12-22T21:59:22.163Z,99790.06
2022-12-22T22:01:52.407Z,99781.25
2022-12-22T22:04:20.542Z,99779.50
2022-12-22T22:06:47.319Z,99778.59
2022-12-22T22:09:14.097Z,99771.56
2022-12-22T22:11:59.447Z,99763.63
2022-12-22T22:14:27.052Z,99768.91
2022-12-22T22:16:53.858Z,99759.22
2022-12-22T22:19:20.695Z,99759.22
2022-12-22T22:21:47.789Z,99761.88
2022-12-22T22:24:14.672Z,99756.59
2022-12-22T22:26:44.507Z,99744.25
2022-12-22T22:29:11.264Z,99742.47
2022-12-22T22:31:38.029Z,99742.47
2022-12-22T22:34:04.914Z,99744.25
2022-12-22T22:36:31.748Z,99733.72
2022-12-22T22:38:58.529Z,99738.06
2022-12-22T22:41:26.093Z,99730.16
2022-12-22T22:43:55.860Z,99730.16
2022-12-22T22:46:22.744Z,99723.13
2022-12-22T22:48:49.534Z,99715.22
2022-12-22T22:51:16.371Z,99719.63
2022-12-22T22:53:43.186Z,99709.03
2022-12-22T22:56:09.929Z,99713.44
2022-12-22T22:58:36.728Z,99704.63
2022-12-22T23:01:11.034Z,99705.53
2022-12-22T23:03:38.198Z,99705.59
2022-12-22T23:06:11.982Z,99695.88
2022-12-22T23:08:39.178Z,99698.56
2022-12-22T23:11:12.706Z,99695.88
2022-12-22T23:13:39.454Z,99696.75
2022-12-22T23:16:06.623Z,99696.75
2022-12-22T23:18:33.817Z,99689.69
2022-12-22T23:21:05.208Z,99689.66
2022-12-22T23:23:33.913Z,99687.91
2022-12-22T23:26:00.682Z,99688.78
2022-12-22T23:28:27.582Z,99691.41
2022-12-22T23:30:54.428Z,99679.09
2022-12-22T23:33:21.939Z,99671.16
2022-12-22T23:35:50.068Z,99669.41
2022-12-22T23:38:20.458Z,99664.09
2022-12-22T23:40:55.014Z,99668.50
2022-12-22T23:43:22.081Z,99660.59
2022-12-22T23:45:48.957Z,99661.47
2022-12-22T23:48:15.757Z,99664.09
2022-12-22T23:50:46.357Z,99658.81
2022-12-22T23:53:13.542Z,99663.22
2022-12-22T23:55:45.148Z,99646.50
2022-12-22T23:58:12.050Z,99656.19
